createdAt,value
2018-07-27T00:00:13.649Z,36.20
2018-07-27T00:02:44.684Z,36.93
2018-07-27T00:05:14.940Z,36.77
2018-07-27T00:07:45.181Z,36.61
2018-07-27T00:10:18.406Z,36.81
2018-07-27T00:12:50.742Z,36.46
2018-07-27T00:15:29.252Z,37.14
2018-07-27T00:18:00.853Z,36.44
2018-07-27T00:20:32.202Z,36.92
2018-07-27T00:23:03.029Z,36.64
2018-07-27T00:25:33.774Z,37.30
2018-07-27T00:28:04.672Z,37.12
2018-07-27T00:30:35.108Z,36.55
2018-07-27T00:33:05.299Z,36.97
2018-07-27T00:35:35.521Z,37.50
2018-07-27T00:38:05.774Z,37.93
2018-07-27T00:40:36.226Z,37.39
2018-07-27T00:43:06.829Z,37.76
2018-07-27T00:45:37.127Z,37.52
2018-07-27T00:48:07.348Z,37.99
2018-07-27T00:50:37.778Z,37.87
2018-07-27T00:53:08.000Z,38.39
2018-07-27T00:55:39.498Z,38.36
2018-07-27T00:58:10.018Z,38.19
2018-07-27T01:00:40.621Z,38.28
2018-07-27T01:03:11.634Z,37.62
2018-07-27T01:05:43.806Z,38.29
2018-07-27T01:08:14.046Z,38.06
2018-07-27T01:10:44.269Z,38.45
2018-07-27T01:13:14.713Z,38.67
2018-07-27T01:15:44.956Z,38.37
2018-07-27T01:18:15.201Z,38.67
2018-07-27T01:20:45.414Z,38.26
2018-07-27T01:23:15.606Z,38.21
2018-07-27T01:25:46.059Z,38.72
2018-07-27T01:28:16.527Z,38.50
2018-07-27T01:30:46.953Z,38.97
2018-07-27T01:33:17.121Z,39.08
2018-07-27T01:35:47.291Z,38.66
2018-07-27T01:38:17.431Z,38.48
2018-07-27T01:40:47.733Z,38.48
2018-07-27T01:43:17.490Z,39.59
2018-07-27T01:45:47.822Z,39.92
2018-07-27T01:48:18.112Z,39.93
2018-07-27T01:50:48.762Z,39.56
2018-07-27T01:53:19.809Z,40.05
2018-07-27T01:55:50.737Z,40.23
2018-07-27T01:58:21.743Z,39.71
2018-07-27T02:00:52.555Z,39.93
2018-07-27T02:03:23.241Z,39.62
2018-07-27T02:05:53.665Z,40.39
2018-07-27T02:08:24.524Z,41.24
2018-07-27T02:10:54.721Z,41.60
2018-07-27T02:13:25.059Z,41.81
2018-07-27T02:15:55.253Z,41.26
2018-07-27T02:18:25.038Z,41.76
2018-07-27T02:20:55.321Z,41.04
2018-07-27T02:23:25.046Z,41.58
2018-07-27T02:25:55.484Z,41.44
2018-07-27T02:28:25.748Z,41.67
2018-07-27T02:30:56.132Z,42.19
2018-07-27T02:33:26.502Z,42.00
2018-07-27T02:35:57.241Z,42.69
2018-07-27T02:38:27.588Z,42.30
2018-07-27T02:40:58.169Z,42.79
2018-07-27T02:43:28.046Z,43.32
2018-07-27T02:45:58.350Z,43.48
2018-07-27T02:48:28.065Z,42.92
2018-07-27T02:50:59.028Z,43.73
2018-07-27T02:53:30.020Z,43.88
2018-07-27T02:56:00.566Z,44.07
2018-07-27T02:58:31.214Z,44.55
2018-07-27T03:01:02.243Z,44.98
2018-07-27T03:03:33.581Z,45.88
2018-07-27T03:06:04.088Z,47.23
2018-07-27T03:08:34.272Z,47.00
2018-07-27T03:11:06.991Z,46.20
2018-07-27T03:13:37.272Z,46.92
2018-07-27T03:16:07.682Z,46.80
2018-07-27T03:18:37.920Z,47.78
2018-07-27T03:21:08.274Z,48.41
2018-07-27T03:23:38.483Z,47.91
2018-07-27T03:26:08.665Z,48.61
2018-07-27T03:28:38.967Z,48.37
2018-07-27T03:31:09.398Z,47.73
2018-07-27T03:33:39.593Z,47.82
2018-07-27T03:36:09.693Z,48.00
2018-07-27T03:38:41.519Z,47.85
2018-07-27T03:41:13.430Z,47.70
2018-07-27T03:43:44.860Z,48.08
2018-07-27T03:46:16.257Z,49.96
2018-07-27T03:48:46.429Z,50.72
2018-07-27T03:51:17.529Z,50.98
2018-07-27T03:53:47.689Z,51.31
2018-07-27T03:56:17.813Z,51.10
2018-07-27T03:58:48.359Z,51.65
2018-07-27T04:01:18.513Z,52.29
2018-07-27T04:03:48.826Z,52.56
2018-07-27T04:06:18.989Z,51.63
2018-07-27T04:08:49.109Z,52.54
2018-07-27T04:11:19.231Z,52.87
2018-07-27T04:13:49.395Z,51.53
2018-07-27T04:16:19.488Z,52.14
2018-07-27T04:18:49.704Z,52.28
2018-07-27T04:21:19.862Z,50.23
2018-07-27T04:23:50.169Z,50.44
2018-07-27T04:26:20.687Z,49.96
2018-07-27T04:28:50.892Z,50.63
2018-07-27T04:31:21.166Z,50.34
2018-07-27T04:33:51.413Z,47.68
2018-07-27T04:36:21.504Z,47.18
2018-07-27T04:38:51.758Z,46.30
2018-07-27T04:41:21.984Z,45.79
2018-07-27T04:43:52.350Z,45.19
2018-07-27T04:46:22.626Z,44.50
2018-07-27T04:48:52.831Z,44.72
2018-07-27T04:51:22.980Z,44.97
2018-07-27T04:53:53.176Z,44.80
2018-07-27T04:56:23.466Z,44.72
2018-07-27T04:58:53.791Z,44.75
2018-07-27T05:01:23.950Z,44.75
2018-07-27T05:03:54.356Z,44.74
2018-07-27T05:06:24.561Z,44.76
2018-07-27T05:08:59.931Z,44.47
2018-07-27T05:11:30.250Z,44.64
2018-07-27T05:14:00.501Z,45.20
2018-07-27T05:16:30.613Z,44.36
2018-07-27T05:19:00.799Z,44.21
2018-07-27T05:21:30.953Z,43.84
2018-07-27T05:24:01.296Z,44.00
2018-07-27T05:26:31.579Z,43.62
2018-07-27T05:29:01.704Z,43.33
2018-07-27T05:31:31.940Z,43.72
2018-07-27T05:34:02.250Z,43.61
2018-07-27T05:36:33.038Z,42.81
2018-07-27T05:39:03.498Z,43.25
2018-07-27T05:41:33.623Z,43.43
2018-07-27T05:44:03.882Z,42.81
2018-07-27T05:46:34.054Z,41.87
2018-07-27T05:49:05.762Z,39.11
2018-07-27T05:51:36.013Z,37.19
2018-07-27T05:54:06.393Z,34.67
2018-07-27T05:56:36.726Z,33.92
2018-07-27T05:59:07.069Z,33.22
2018-07-27T06:01:39.062Z,31.06
2018-07-27T06:04:09.318Z,31.00
2018-07-27T06:06:39.512Z,29.48
2018-07-27T06:09:11.622Z,30.33
2018-07-27T06:11:41.742Z,30.40
2018-07-27T06:14:12.012Z,29.43
2018-07-27T06:16:42.184Z,29.24
2018-07-27T06:19:12.368Z,28.06
2018-07-27T06:21:42.489Z,27.23
2018-07-27T06:24:12.768Z,27.09
2018-07-27T06:26:42.864Z,27.39
2018-07-27T06:29:13.093Z,28.06
2018-07-27T06:31:43.559Z,27.47
2018-07-27T06:34:13.810Z,27.27
2018-07-27T06:36:44.013Z,28.28
2018-07-27T06:39:14.200Z,28.51
2018-07-27T06:41:44.377Z,27.46
2018-07-27T06:44:14.720Z,26.43
2018-07-27T06:46:44.830Z,26.29
2018-07-27T06:49:15.077Z,26.17
2018-07-27T06:51:45.216Z,25.13
2018-07-27T06:54:15.567Z,25.74
2018-07-27T06:56:45.785Z,26.47
2018-07-27T06:59:15.963Z,26.11
2018-07-27T07:01:46.893Z,27.00
2018-07-27T07:04:17.102Z,27.48
2018-07-27T07:06:47.183Z,26.89
2018-07-27T07:09:17.582Z,26.83
2018-07-27T07:11:47.815Z,25.95
2018-07-27T07:14:17.964Z,25.73
2018-07-27T07:16:48.455Z,26.21
2018-07-27T07:19:18.680Z,25.24
2018-07-27T07:21:48.864Z,24.98
2018-07-27T07:24:19.016Z,25.57
2018-07-27T07:26:49.309Z,24.45
2018-07-27T07:29:19.502Z,25.20
2018-07-27T07:31:49.819Z,25.01
2018-07-27T07:34:19.975Z,24.41
2018-07-27T07:36:49.854Z,25.63
2018-07-27T07:39:20.001Z,25.56
2018-07-27T07:41:50.247Z,24.39
2018-07-27T07:44:20.376Z,23.85
2018-07-27T07:46:50.674Z,22.33
2018-07-27T07:49:20.842Z,23.41
2018-07-27T07:51:50.913Z,23.15
2018-07-27T07:54:21.102Z,22.19
2018-07-27T07:56:51.239Z,23.35
2018-07-27T07:59:21.429Z,23.31
2018-07-27T08:01:51.565Z,23.85
2018-07-27T08:04:21.759Z,22.27
2018-07-27T08:06:51.950Z,23.20
2018-07-27T08:09:22.168Z,22.87
2018-07-27T08:11:52.445Z,24.31
2018-07-27T08:14:22.642Z,23.36
2018-07-27T08:16:52.736Z,23.40
2018-07-27T08:19:22.904Z,22.94
2018-07-27T08:21:53.120Z,23.71
2018-07-27T08:24:23.477Z,23.84
2018-07-27T08:26:58.281Z,21.55
2018-07-27T08:29:30.756Z,21.84
2018-07-27T08:32:01.432Z,22.10
2018-07-27T08:34:31.817Z,22.08
2018-07-27T08:37:02.090Z,21.72
2018-07-27T08:39:34.133Z,22.92
2018-07-27T08:42:04.345Z,22.25
2018-07-27T08:44:35.922Z,21.15
2018-07-27T08:47:06.138Z,22.36
2018-07-27T08:49:36.437Z,21.66
2018-07-27T08:52:06.732Z,22.86
2018-07-27T08:54:36.969Z,22.11
2018-07-27T08:57:07.273Z,22.23
2018-07-27T08:59:37.715Z,21.25
2018-07-27T09:02:07.990Z,20.07
2018-07-27T09:04:38.221Z,19.69
2018-07-27T09:07:08.637Z,19.91
2018-07-27T09:09:39.025Z,18.36
2018-07-27T09:12:09.355Z,18.92
2018-07-27T09:14:39.594Z,18.49
2018-07-27T09:17:09.877Z,18.34
2018-07-27T09:19:40.348Z,19.13
2018-07-27T09:22:10.560Z,19.19
2018-07-27T09:24:40.915Z,19.83
2018-07-27T09:27:10.908Z,19.87
2018-07-27T09:29:41.042Z,19.94
2018-07-27T09:32:11.168Z,20.59
2018-07-27T09:34:41.361Z,20.32
2018-07-27T09:37:11.563Z,19.40
2018-07-27T09:39:41.889Z,19.80
2018-07-27T09:42:12.104Z,20.65
2018-07-27T09:44:42.289Z,20.60
2018-07-27T09:47:12.558Z,19.99
2018-07-27T09:49:42.716Z,19.42
2018-07-27T09:52:12.812Z,19.46
2018-07-27T09:54:43.015Z,19.52
2018-07-27T09:57:13.093Z,19.51
2018-07-27T09:59:50.085Z,20.68
2018-07-27T10:02:20.452Z,20.79
2018-07-27T10:04:50.619Z,21.39
2018-07-27T10:07:20.693Z,21.30
2018-07-27T10:09:51.029Z,21.09
2018-07-27T10:12:21.221Z,21.29
2018-07-27T10:14:51.386Z,22.04
2018-07-27T10:17:21.804Z,21.31
2018-07-27T10:19:52.188Z,21.59
2018-07-27T10:22:22.340Z,21.28
2018-07-27T10:24:52.491Z,21.59
2018-07-27T10:27:22.706Z,22.06
2018-07-27T10:29:52.927Z,20.83
2018-07-27T10:32:23.093Z,21.42
2018-07-27T10:34:53.276Z,21.75
2018-07-27T10:37:25.332Z,22.20
2018-07-27T10:39:55.479Z,21.39
2018-07-27T10:42:25.556Z,20.79
2018-07-27T10:45:00.472Z,21.98
2018-07-27T10:47:32.666Z,21.32
2018-07-27T10:50:02.828Z,21.38
2018-07-27T10:52:33.318Z,20.05
2018-07-27T10:55:03.550Z,21.14
2018-07-27T10:57:33.685Z,21.13
2018-07-27T11:00:04.012Z,20.71
2018-07-27T11:02:34.182Z,19.52
2018-07-27T11:05:04.404Z,20.60
2018-07-27T11:07:34.477Z,20.94
2018-07-27T11:10:04.809Z,20.24
2018-07-27T11:12:35.313Z,20.45
2018-07-27T11:15:06.233Z,20.76
2018-07-27T11:17:36.424Z,20.81
2018-07-27T11:20:07.946Z,19.80
2018-07-27T11:22:37.858Z,19.97
2018-07-27T11:25:08.265Z,20.01
2018-07-27T11:27:38.385Z,19.75
2018-07-27T11:30:08.637Z,19.55
2018-07-27T11:32:38.798Z,18.88
2018-07-27T11:35:08.999Z,19.62
2018-07-27T11:37:39.206Z,20.38
2018-07-27T11:40:09.436Z,20.12
2018-07-27T11:42:39.180Z,19.48
2018-07-27T11:45:09.338Z,19.93
2018-07-27T11:47:39.497Z,19.21
2018-07-27T11:50:09.711Z,20.15
2018-07-27T11:52:41.001Z,19.71
2018-07-27T11:55:11.340Z,20.28
2018-07-27T11:57:41.431Z,19.71
2018-07-27T12:00:11.799Z,18.70
2018-07-27T12:02:42.610Z,19.71
2018-07-27T12:05:12.926Z,19.36
2018-07-27T12:07:43.054Z,19.41
2018-07-27T12:10:13.312Z,18.57
2018-07-27T12:12:43.433Z,19.74
2018-07-27T12:15:13.917Z,19.88
2018-07-27T12:17:43.786Z,20.44
2018-07-27T12:20:16.273Z,19.83
2018-07-27T12:22:46.571Z,19.17
2018-07-27T12:25:16.768Z,19.35
2018-07-27T12:27:46.839Z,18.88
2018-07-27T12:30:17.021Z,19.23
2018-07-27T12:32:47.199Z,17.60
2018-07-27T12:35:17.540Z,17.99
2018-07-27T12:37:47.725Z,18.50
2018-07-27T12:40:17.942Z,17.34
2018-07-27T12:42:48.115Z,17.54
2018-07-27T12:45:18.257Z,17.39
2018-07-27T12:47:48.424Z,17.59
2018-07-27T12:50:18.593Z,17.45
2018-07-27T12:52:48.706Z,17.88
2018-07-27T12:55:18.904Z,18.15
2018-07-27T12:57:49.242Z,18.48
2018-07-27T13:00:19.429Z,18.10
2018-07-27T13:02:49.597Z,18.04
2018-07-27T13:05:19.851Z,17.77
2018-07-27T13:07:49.995Z,17.96
2018-07-27T13:10:20.135Z,17.90
2018-07-27T13:12:50.297Z,18.05
2018-07-27T13:15:20.602Z,18.21
2018-07-27T13:17:50.343Z,17.55
2018-07-27T13:20:20.566Z,17.00
2018-07-27T13:22:50.780Z,16.93
2018-07-27T13:25:21.014Z,17.46
2018-07-27T13:27:51.116Z,17.50
2018-07-27T13:30:21.310Z,16.78
2018-07-27T13:32:51.412Z,17.68
2018-07-27T13:35:21.699Z,17.35
2018-07-27T13:37:51.823Z,17.33
2018-07-27T13:40:21.972Z,16.79
2018-07-27T13:42:52.099Z,16.02
2018-07-27T13:45:22.252Z,16.24
2018-07-27T13:47:52.386Z,17.50
2018-07-27T13:50:22.544Z,17.57
2018-07-27T13:52:52.746Z,17.14
2018-07-27T13:55:22.873Z,17.02
2018-07-27T13:57:52.987Z,17.67
2018-07-27T14:00:23.304Z,18.71
2018-07-27T14:02:53.493Z,17.30
2018-07-27T14:05:23.662Z,16.81
2018-07-27T14:07:53.855Z,16.94
2018-07-27T14:10:24.064Z,17.19
2018-07-27T14:12:54.284Z,16.67
2018-07-27T14:15:24.483Z,16.34
2018-07-27T14:17:54.665Z,16.15
2018-07-27T14:20:24.861Z,16.60
2018-07-27T14:22:54.953Z,16.59
2018-07-27T14:25:25.178Z,16.85
2018-07-27T14:28:02.264Z,16.96
2018-07-27T14:30:32.437Z,16.68
2018-07-27T14:33:02.667Z,16.53
2018-07-27T14:35:32.882Z,16.19
2018-07-27T14:38:03.314Z,15.29
2018-07-27T14:40:33.714Z,14.73
2018-07-27T14:43:03.922Z,14.53
2018-07-27T14:45:34.071Z,14.42
2018-07-27T14:48:04.175Z,14.82
2018-07-27T14:50:34.471Z,14.00
2018-07-27T14:53:04.643Z,13.50
2018-07-27T14:55:34.795Z,13.01
2018-07-27T14:58:05.575Z,13.84
2018-07-27T15:00:35.709Z,14.50
2018-07-27T15:03:05.865Z,14.14
2018-07-27T15:05:36.072Z,14.52
2018-07-27T15:08:06.306Z,14.76
2018-07-27T15:10:36.437Z,14.45
2018-07-27T15:13:06.676Z,13.80
2018-07-27T15:15:36.884Z,13.94
2018-07-27T15:18:07.433Z,14.00
2018-07-27T15:20:37.583Z,14.01
2018-07-27T15:23:07.923Z,13.98
2018-07-27T15:25:38.518Z,15.16
2018-07-27T15:28:08.639Z,14.66
2018-07-27T15:30:38.839Z,14.20
2018-07-27T15:33:08.965Z,13.79
2018-07-27T15:35:39.218Z,13.76
2018-07-27T15:38:09.385Z,14.07
2018-07-27T15:40:39.550Z,13.81
2018-07-27T15:43:09.708Z,13.84
2018-07-27T15:45:39.850Z,14.43
2018-07-27T15:48:10.086Z,14.66
2018-07-27T15:50:40.224Z,15.18
2018-07-27T15:53:10.389Z,14.34
2018-07-27T15:55:40.697Z,14.17
2018-07-27T15:58:10.452Z,13.82
2018-07-27T16:00:40.728Z,13.26
2018-07-27T16:03:11.020Z,13.66
2018-07-27T16:05:41.145Z,12.98
2018-07-27T16:08:11.245Z,13.34
2018-07-27T16:10:41.414Z,13.49
2018-07-27T16:13:11.648Z,13.85
2018-07-27T16:15:41.805Z,13.56
2018-07-27T16:18:11.965Z,14.49
2018-07-27T16:20:42.155Z,14.42
2018-07-27T16:23:12.378Z,15.03
2018-07-27T16:25:42.569Z,14.27
2018-07-27T16:28:12.663Z,14.56
2018-07-27T16:30:43.012Z,14.73
2018-07-27T16:33:13.346Z,14.04
2018-07-27T16:35:43.476Z,13.51
2018-07-27T16:38:13.611Z,14.26
2018-07-27T16:40:43.824Z,14.01
2018-07-27T16:43:13.963Z,14.78
2018-07-27T16:45:44.182Z,13.93
2018-07-27T16:48:14.273Z,14.83
2018-07-27T16:50:44.425Z,15.25
2018-07-27T16:53:14.544Z,16.36
2018-07-27T16:55:44.244Z,16.80
2018-07-27T16:58:14.477Z,17.13
2018-07-27T17:00:44.589Z,16.67
2018-07-27T17:03:14.735Z,17.48
2018-07-27T17:05:44.922Z,18.01
2018-07-27T17:08:15.132Z,17.61
2018-07-27T17:10:45.414Z,18.01
2018-07-27T17:13:15.625Z,17.62
2018-07-27T17:15:45.851Z,18.10
2018-07-27T17:18:16.031Z,18.46
2018-07-27T17:20:46.251Z,18.58
2018-07-27T17:23:16.384Z,18.76
2018-07-27T17:25:46.588Z,18.57
2018-07-27T17:28:16.752Z,18.37
2018-07-27T17:30:46.982Z,18.57
2018-07-27T17:33:17.088Z,19.61
2018-07-27T17:35:47.256Z,19.27
2018-07-27T17:38:17.427Z,19.16
2018-07-27T17:40:47.605Z,19.50
2018-07-27T17:43:17.750Z,19.17
2018-07-27T17:45:47.911Z,19.74
2018-07-27T17:48:18.163Z,19.36
2018-07-27T17:50:48.460Z,20.00
2018-07-27T17:53:18.685Z,20.04
2018-07-27T17:55:48.952Z,20.56
2018-07-27T17:58:19.078Z,20.68
2018-07-27T18:00:49.303Z,20.28
2018-07-27T18:03:19.565Z,20.93
2018-07-27T18:05:49.883Z,21.02
2018-07-27T18:08:20.032Z,20.85
2018-07-27T18:10:50.241Z,21.02
2018-07-27T18:13:20.369Z,21.11
2018-07-27T18:15:50.582Z,21.28
2018-07-27T18:18:20.757Z,20.94
2018-07-27T18:20:50.985Z,21.72
2018-07-27T18:23:21.098Z,21.66
2018-07-27T18:25:51.450Z,21.77
2018-07-27T18:28:21.612Z,22.10
2018-07-27T18:30:51.738Z,22.57
2018-07-27T18:33:21.905Z,22.18
2018-07-27T18:35:52.089Z,22.71
2018-07-27T18:38:22.342Z,22.41
2018-07-27T18:40:52.569Z,23.04
2018-07-27T18:43:22.769Z,23.20
2018-07-27T18:45:52.924Z,23.27
2018-07-27T18:48:23.040Z,23.19
2018-07-27T18:50:53.280Z,23.55
2018-07-27T18:53:23.530Z,23.70
2018-07-27T18:55:53.710Z,23.32
2018-07-27T18:58:24.290Z,23.62
2018-07-27T19:00:54.447Z,23.86
2018-07-27T19:03:24.729Z,24.10
2018-07-27T19:05:55.043Z,24.61
2018-07-27T19:08:25.342Z,24.55
2018-07-27T19:10:56.083Z,24.33
2018-07-27T19:13:26.376Z,25.05
2018-07-27T19:15:56.788Z,25.00
2018-07-27T19:18:26.900Z,25.43
2018-07-27T19:20:57.221Z,25.36
2018-07-27T19:23:28.186Z,24.90
2018-07-27T19:26:01.702Z,25.17
2018-07-27T19:28:31.875Z,25.79
2018-07-27T19:31:02.361Z,25.88
2018-07-27T19:33:32.729Z,25.46
2018-07-27T19:36:02.943Z,25.75
2018-07-27T19:38:33.113Z,26.22
2018-07-27T19:41:03.903Z,26.12
2018-07-27T19:43:34.136Z,26.21
2018-07-27T19:46:04.430Z,26.41
2018-07-27T19:48:34.898Z,26.17
2018-07-27T19:51:05.114Z,26.55
2018-07-27T19:53:35.246Z,26.53
2018-07-27T19:56:06.619Z,26.53
2018-07-27T19:58:36.763Z,26.98
2018-07-27T20:01:07.012Z,26.58
2018-07-27T20:03:37.045Z,27.08
2018-07-27T20:06:07.509Z,26.96
2018-07-27T20:08:37.681Z,27.44
2018-07-27T20:11:08.035Z,26.99
2018-07-27T20:13:38.166Z,27.26
2018-07-27T20:16:07.924Z,27.36
2018-07-27T20:18:38.022Z,27.79
2018-07-27T20:21:08.260Z,27.49
2018-07-27T20:23:38.377Z,27.30
2018-07-27T20:26:08.742Z,28.00
2018-07-27T20:28:39.080Z,27.85
2018-07-27T20:31:09.205Z,28.29
2018-07-27T20:33:39.440Z,28.07
2018-07-27T20:36:09.635Z,28.51
2018-07-27T20:38:39.888Z,28.74
2018-07-27T20:41:10.743Z,28.74
2018-07-27T20:43:40.908Z,29.10
2018-07-27T20:46:14.226Z,29.35
2018-07-27T20:48:44.379Z,29.57
2018-07-27T20:51:14.614Z,30.08
2018-07-27T20:53:44.847Z,29.76
2018-07-27T20:56:15.076Z,29.68
2018-07-27T20:58:45.218Z,30.11
2018-07-27T21:01:15.384Z,30.03
2018-07-27T21:03:45.524Z,30.50
2018-07-27T21:06:15.628Z,30.70
2018-07-27T21:08:45.786Z,30.70
2018-07-27T21:11:15.959Z,30.88
2018-07-27T21:13:46.070Z,31.28
2018-07-27T21:16:16.247Z,31.15
2018-07-27T21:18:46.356Z,31.99
2018-07-27T21:21:16.509Z,32.21
2018-07-27T21:23:46.650Z,32.06
2018-07-27T21:26:16.853Z,32.66
2018-07-27T21:28:47.135Z,33.03
2018-07-27T21:31:17.345Z,32.22
2018-07-27T21:33:47.478Z,32.22
2018-07-27T21:36:17.758Z,32.68
2018-07-27T21:38:48.035Z,32.36
2018-07-27T21:41:18.348Z,32.78
2018-07-27T21:43:48.565Z,32.86
2018-07-27T21:46:18.732Z,32.88
2018-07-27T21:48:48.909Z,33.21
2018-07-27T21:51:19.186Z,32.77
2018-07-27T21:53:49.666Z,33.46
2018-07-27T21:56:19.803Z,33.24
2018-07-27T21:58:49.992Z,33.25
2018-07-27T22:01:20.386Z,34.06
2018-07-27T22:03:50.662Z,33.31
2018-07-27T22:06:20.904Z,34.25
2018-07-27T22:08:51.071Z,33.87
2018-07-27T22:11:21.553Z,34.21
2018-07-27T22:13:51.961Z,34.45
2018-07-27T22:16:22.151Z,34.07
2018-07-27T22:18:52.259Z,33.85
2018-07-27T22:21:23.560Z,34.25
2018-07-27T22:23:53.760Z,33.50
2018-07-27T22:26:24.147Z,34.08
2018-07-27T22:28:54.313Z,34.02
2018-07-27T22:31:24.464Z,33.55
2018-07-27T22:33:54.636Z,34.26
2018-07-27T22:36:24.872Z,34.20
2018-07-27T22:38:55.335Z,34.36
2018-07-27T22:41:25.822Z,34.35
2018-07-27T22:43:55.937Z,34.44
2018-07-27T22:46:26.428Z,34.71
2018-07-27T22:48:56.646Z,34.88
2018-07-27T22:51:27.388Z,34.45
2018-07-27T22:53:58.503Z,34.21
2018-07-27T22:56:29.102Z,34.46
2018-07-27T22:58:59.748Z,34.66
2018-07-27T23:01:30.487Z,34.46
2018-07-27T23:04:01.094Z,34.57
2018-07-27T23:06:31.696Z,35.26
2018-07-27T23:09:02.395Z,35.31
2018-07-27T23:11:32.603Z,35.02
2018-07-27T23:14:02.831Z,35.79
2018-07-27T23:16:33.026Z,35.89
2018-07-27T23:19:03.063Z,35.89
2018-07-27T23:21:33.249Z,35.45
2018-07-27T23:24:03.421Z,35.50
2018-07-27T23:26:33.593Z,35.86
2018-07-27T23:29:03.762Z,35.78
2018-07-27T23:31:33.904Z,36.53
2018-07-27T23:34:04.032Z,36.20
2018-07-27T23:36:34.212Z,36.49
2018-07-27T23:39:07.231Z,36.66
2018-07-27T23:41:37.664Z,37.08
2018-07-27T23:44:08.162Z,37.04
2018-07-27T23:46:38.915Z,37.42
2018-07-27T23:49:10.225Z,38.17
2018-07-27T23:51:40.683Z,37.28
2018-07-27T23:54:10.934Z,37.09
2018-07-27T23:56:41.099Z,37.65
2018-07-27T23:59:10.820Z,37.98
